Time;durP1;ratioP1;P1;durP2;ratioP2;P2;SDS_P1;SDS_P2;PMS_P1;PMS_P2;Temp;Humidity;BMP_temperature;BMP_pressure;BME280_temperature;BME280_humidity;BME280_pressure;Samples;Min_cycle;Max_cycle;Signal;HPM_P1;HPM_P2
2023/09/08 00:01:01;;;;;;;7.03;4.87;;;18.50;4.80;;;;;;6217058;23;20559;-57
2023/09/08 00:03:27;;;;;;;8.30;4.33;;;18.60;99.90;;;;;;6215326;23;20183;-47
2023/09/08 00:05:54;;;;;;;5.67;4.53;;;18.70;99.20;;;;;;6217141;23;20180;-42
2023/09/08 00:08:20;;;;;;;7.80;4.40;;;18.70;99.90;;;;;;6218932;23;20231;-47
2023/09/08 00:10:46;;;;;;;6.90;4.47;;;18.80;99.90;;;;;;6217470;23;20160;-47
2023/09/08 00:13:11;;;;;;;5.03;4.20;;;18.90;99.90;;;;;;6217396;23;20160;-47
2023/09/08 00:15:37;;;;;;;10.40;5.10;;;18.90;99.90;;;;;;6192143;23;20183;-45
2023/09/08 00:18:13;;;;;;;5.73;4.50;;;18.90;1.00;;;;;;6217340;23;20160;-43
2023/09/08 00:20:41;;;;;;;6.90;4.50;;;19.00;99.90;;;;;;6218929;23;20164;-46
2023/09/08 00:23:12;;;;;;;7.50;4.57;;;19.00;99.90;;;;;;6218661;23;20210;-44
2023/09/08 00:25:44;;;;;;;6.93;5.20;;;19.00;98.00;;;;;;6217175;23;20179;-43
2023/09/08 00:28:41;;;;;;;6.13;4.90;;;19.00;1.00;;;;;;6218924;23;20155;-43
2023/09/08 00:31:12;;;;;;;7.50;4.40;;;19.00;99.90;;;;;;6219162;23;20140;-43
2023/09/08 00:33:58;;;;;;;5.93;4.50;;;18.90;1.00;;;;;;6218999;23;20247;-43
2023/09/08 00:36:23;;;;;;;5.60;4.37;;;19.00;1.00;;;;;;6214119;23;20263;-46
2023/09/08 00:38:49;;;;;;;9.63;4.97;;;19.00;1.00;;;;;;6218509;23;20230;-47
2023/09/08 00:41:15;;;;;;;11.13;4.97;;;19.10;1.00;;;;;;6218681;23;20152;-48
2023/09/08 00:43:40;;;;;;;5.03;4.53;;;19.10;1.00;;;;;;6217160;23;20166;-47
2023/09/08 00:46:23;;;;;;;8.40;4.70;;;19.10;1.00;;;;;;6218752;23;20206;-43
2023/09/08 00:48:51;;;;;;;5.27;4.77;;;19.10;99.90;;;;;;6192758;23;20156;-46
2023/09/08 00:52:07;;;;;;;12.30;5.30;;;19.10;99.90;;;;;;6218714;23;20152;-43
2023/09/08 00:54:33;;;;;;;8.40;5.20;;;19.20;99.90;;;;;;6218436;23;20172;-46
2023/09/08 01:00:20;;;;;;;7.93;5.47;;;19.20;99.90;;;;;;6218635;23;20222;-46
2023/09/08 01:03:43;;;;;;;6.07;5.07;;;19.20;99.90;;;;;;6218808;23;20602;-43
2023/09/08 01:06:13;;;;;;;8.97;4.83;;;19.20;88.90;;;;;;6216782;23;20180;-43
2023/09/08 01:08:43;;;;;;;9.17;4.90;;;19.30;1.00;;;;;;6217584;23;20145;-43
2023/09/08 01:11:09;;;;;;;7.07;5.10;;;19.30;1.00;;;;;;6217037;23;20533;-45
2023/09/08 01:13:39;;;;;;;6.10;5.10;;;19.30;1.00;;;;;;6216806;23;20160;-43
2023/09/08 01:19:32;;;;;;;9.33;5.40;;;19.40;1.00;;;;;;6218686;23;20187;-43
2023/09/08 01:22:15;;;;;;;7.73;5.67;;;19.40;1.00;;;;;;6191883;23;20160;-46
2023/09/08 01:25:29;;;;;;;7.83;5.10;;;19.40;1.00;;;;;;6218624;23;20544;-40
2023/09/08 01:28:00;;;;;;;7.30;5.50;;;19.30;1.00;;;;;;6216653;23;20491;-46
2023/09/08 01:30:54;;;;;;;6.03;5.37;;;19.30;1.00;;;;;;6218497;23;20157;-48
2023/09/08 01:33:51;;;;;;;6.97;5.70;;;19.30;1.00;;;;;;6208128;23;20598;-42
2023/09/08 01:36:17;;;;;;;13.33;5.97;;;19.20;1.00;;;;;;6216526;23;20291;-46
2023/09/08 01:38:56;;;;;;;6.97;5.90;;;19.20;1.00;;;;;;6219120;23;20622;-42
2023/09/08 03:11:37;;;;;;;6.27;5.10;;;17.50;1.00;;;;;;6217987;23;20194;-44
2023/09/08 03:14:03;;;;;;;9.43;6.10;;;17.40;1.00;;;;;;6190945;23;20172;-46
2023/09/08 03:16:29;;;;;;;8.23;5.53;;;17.40;1.00;;;;;;6215506;23;20264;-47
2023/09/08 03:19:31;;;;;;;7.40;5.77;;;17.30;1.00;;;;;;6215307;23;20204;-43
2023/09/08 03:21:57;;;;;;;8.73;5.27;;;17.20;1.00;;;;;;6154676;23;20172;-47
2023/09/08 03:24:34;;;;;;;6.23;5.60;;;17.30;1.00;;;;;;6204232;23;20157;-42
2023/09/08 03:27:00;;;;;;;6.10;5.50;;;17.30;1.00;;;;;;6215456;23;20681;-47
2023/09/08 03:30:00;;;;;;;7.73;5.93;;;17.20;1.00;;;;;;6217005;23;20204;-44
2023/09/08 03:32:28;;;;;;;6.40;5.70;;;17.10;1.00;;;;;;6212387;23;20160;-47
2023/09/08 03:34:57;;;;;;;10.77;6.00;;;17.10;1.00;;;;;;6215383;23;20184;-43
2023/09/08 03:37:42;;;;;;;9.90;5.60;;;17.00;1.00;;;;;;6215667;23;20164;-43
2023/09/08 03:40:40;;;;;;;9.70;5.70;;;17.00;1.00;;;;;;6215094;23;20525;-43
2023/09/08 03:43:06;;;;;;;6.77;5.57;;;16.90;1.00;;;;;;6125092;23;20240;-48
2023/09/08 03:48:33;;;;;;;6.33;5.43;;;16.80;1.00;;;;;;6232649;22;20214;-91
2023/09/08 03:50:59;;;;;;;8.07;5.20;;;16.80;1.00;;;;;;6249584;23;20152;-89
2023/09/08 03:53:25;;;;;;;5.77;5.20;;;16.70;1.00;;;;;;6249292;23;20179;-88
2023/09/08 03:55:51;;;;;;;9.30;5.37;;;16.80;1.00;;;;;;6248874;23;20179;-90
2023/09/08 03:58:16;;;;;;;10.73;5.63;;;16.70;1.00;;;;;;6249318;23;20243;-90
2023/09/08 04:00:42;;;;;;;10.70;6.00;;;16.70;1.00;;;;;;6249856;23;20191;-91
2023/09/08 04:03:09;;;;;;;8.30;5.67;;;16.60;1.00;;;;;;6249325;23;20156;-90
2023/09/08 04:05:34;;;;;;;9.37;5.30;;;16.60;1.00;;;;;;6248823;23;20175;-89
2023/09/08 04:08:01;;;;;;;6.40;5.20;;;16.60;1.00;;;;;;6249984;23;20163;-90
2023/09/08 04:10:26;;;;;;;7.90;5.67;;;16.50;1.00;;;;;;6249633;23;20159;-91
2023/09/08 04:12:52;;;;;;;5.90;5.30;;;16.50;1.00;;;;;;6251081;22;20646;-88
2023/09/08 04:15:17;;;;;;;6.87;5.20;;;16.50;1.00;;;;;;6256438;23;20159;-90
2023/09/08 04:17:43;;;;;;;7.07;5.40;;;16.40;1.00;;;;;;6248686;23;20499;-90
2023/09/08 04:20:09;;;;;;;6.00;5.17;;;16.40;1.00;;;;;;6250253;23;20180;-91
2023/09/08 04:22:35;;;;;;;5.77;5.13;;;16.40;1.00;;;;;;6249647;23;20166;-92
2023/09/08 04:25:01;;;;;;;8.63;5.43;;;16.30;1.00;;;;;;6250392;23;20155;-90
2023/09/08 04:27:27;;;;;;;6.13;5.40;;;16.30;1.00;;;;;;6249947;23;20514;-89
2023/09/08 04:29:52;;;;;;;6.97;6.10;;;16.20;1.00;;;;;;6224852;23;20164;-90
2023/09/08 04:32:18;;;;;;;7.50;5.63;;;16.20;1.00;;;;;;6249909;23;20159;-90
2023/09/08 04:34:44;;;;;;;8.83;5.33;;;16.20;1.00;;;;;;6251825;23;20156;-90
2023/09/08 04:37:10;;;;;;;5.80;5.20;;;16.20;1.00;;;;;;6250322;23;20214;-90
2023/09/08 04:39:36;;;;;;;8.20;5.73;;;16.10;1.00;;;;;;6247941;23;20202;-88
2023/09/08 04:42:03;;;;;;;8.70;5.43;;;16.30;1.00;;;;;;6247383;23;20156;-89
2023/09/08 04:44:28;;;;;;;7.10;5.43;;;16.10;1.00;;;;;;6258257;23;20182;-91
2023/09/08 04:46:55;;;;;;;8.63;5.87;;;16.10;1.00;;;;;;6270207;23;20223;-90
2023/09/08 04:49:21;;;;;;;7.63;5.80;;;18.00;1.00;;;;;;6273793;22;20255;-82
2023/09/08 04:51:47;;;;;;;10.83;5.47;;;16.80;1.00;;;;;;6272597;22;20140;-92
2023/09/08 04:54:12;;;;;;;9.57;5.20;;;16.30;1.00;;;;;;6250540;22;20560;-89
2023/09/08 04:56:41;;;;;;;6.53;5.13;;;16.00;1.00;;;;;;6250565;22;20243;-90
2023/09/08 04:59:07;;;;;;;7.50;6.13;;;16.10;1.00;;;;;;6249229;23;20207;-90
2023/09/08 05:01:32;;;;;;;5.83;5.23;;;16.50;1.00;;;;;;6249754;23;20214;-89
2023/09/08 05:03:59;;;;;;;6.30;5.07;;;15.90;1.00;;;;;;6249597;23;20160;-91
2023/09/08 05:06:25;;;;;;;11.70;5.73;;;16.20;1.00;;;;;;6224349;23;20176;-89
2023/09/08 05:08:51;;;;;;;7.90;5.50;;;16.00;1.00;;;;;;6250033;23;20170;-91
2023/09/08 05:11:18;;;;;;;7.40;5.43;;;15.80;1.00;;;;;;6249595;23;20600;-88
2023/09/08 05:13:44;;;;;;;9.30;5.73;;;15.80;1.00;;;;;;6249776;23;20163;-88
2023/09/08 05:16:13;;;;;;;8.67;5.97;;;15.80;1.00;;;;;;6249510;23;20176;-90
2023/09/08 05:18:39;;;;;;;7.07;5.47;;;15.80;1.00;;;;;;6253194;23;20136;-89
2023/09/08 05:21:06;;;;;;;8.80;6.20;;;15.80;1.00;;;;;;6224921;23;20210;-90
2023/09/08 05:23:32;;;;;;;7.37;5.90;;;15.70;1.00;;;;;;6252972;22;20160;-88
2023/09/08 05:25:58;;;;;;;7.20;5.93;;;15.70;1.00;;;;;;6252365;22;20195;-90
2023/09/08 05:28:24;;;;;;;8.07;5.90;;;16.20;1.00;;;;;;6251532;23;20162;-89
2023/09/08 05:30:53;;;;;;;9.20;6.10;;;16.50;1.00;;;;;;6253264;22;20155;-88
2023/09/08 05:33:23;;;;;;;7.53;5.80;;;16.30;1.00;;;;;;6251910;23;20156;-89
2023/09/08 05:35:49;;;;;;;7.50;5.83;;;15.70;1.00;;;;;;6225540;23;20524;-89
2023/09/08 05:38:15;;;;;;;8.80;5.77;;;15.80;1.00;;;;;;6250529;23;20163;-89
2023/09/08 05:40:41;;;;;;;8.17;5.80;;;15.70;1.00;;;;;;6225417;23;20192;-89
2023/09/08 05:43:06;;;;;;;8.80;6.43;;;16.50;1.00;;;;;;6249375;23;20159;-89
2023/09/08 05:45:33;;;;;;;9.07;5.53;;;15.60;1.00;;;;;;6250735;22;20514;-88
2023/09/08 05:47:58;;;;;;;5.83;5.17;;;15.80;1.00;;;;;;6250654;23;20177;-89
2023/09/08 05:50:24;;;;;;;7.83;5.57;;;15.80;1.00;;;;;;6250755;23;20183;-89
2023/09/08 05:52:52;;;;;;;10.23;5.60;;;15.80;1.00;;;;;;6251204;23;20163;-88
2023/09/08 05:55:19;;;;;;;7.90;6.10;;;15.80;1.00;;;;;;6252684;22;20613;-89
2023/09/08 05:57:45;;;;;;;7.40;5.97;;;15.80;1.00;;;;;;6252861;22;20500;-88
2023/09/08 06:00:12;;;;;;;9.03;5.80;;;16.60;1.00;;;;;;6250604;23;20179;-88
2023/09/08 06:02:37;;;;;;;7.03;6.10;;;15.90;1.00;;;;;;6250685;22;20150;-89
2023/09/08 06:05:03;;;;;;;9.03;5.70;;;15.90;1.00;;;;;;6250889;22;20211;-92
2023/09/08 06:07:30;;;;;;;7.10;5.73;;;16.00;1.00;;;;;;6251583;22;20160;-92
2023/09/08 06:09:57;;;;;;;7.43;5.73;;;16.00;1.00;;;;;;6250234;23;20156;-89
2023/09/08 06:12:22;;;;;;;8.93;5.87;;;16.10;1.00;;;;;;6249840;23;20160;-89
2023/09/08 06:14:48;;;;;;;7.93;6.27;;;16.10;1.00;;;;;;6225552;23;20206;-88
2023/09/08 06:17:13;;;;;;;7.50;6.03;;;16.20;1.00;;;;;;6260732;22;20307;-89
2023/09/08 06:19:39;;;;;;;7.43;5.87;;;16.30;1.00;;;;;;6250568;23;20192;-90
2023/09/08 06:22:04;;;;;;;7.97;6.23;;;16.30;1.00;;;;;;6249422;23;20552;-91
2023/09/08 06:24:30;;;;;;;8.63;6.20;;;16.50;1.00;;;;;;6250242;23;20620;-91
2023/09/08 06:26:56;;;;;;;6.93;5.50;;;17.70;1.00;;;;;;6251588;22;20607;-91
2023/09/08 06:29:21;;;;;;;8.73;5.67;;;16.60;1.00;;;;;;6250344;23;20163;-91
2023/09/08 06:31:47;;;;;;;8.10;5.53;;;16.60;1.00;;;;;;6249503;23;20155;-91
2023/09/08 06:34:12;;;;;;;11.30;5.67;;;16.90;1.00;;;;;;6250937;23;20206;-90
2023/09/08 06:36:38;;;;;;;6.20;5.60;;;16.90;1.00;;;;;;6249966;23;20179;-90
2023/09/08 06:39:04;;;;;;;9.27;5.60;;;17.00;1.00;;;;;;6249749;23;20658;-90
2023/09/08 06:41:30;;;;;;;10.40;5.43;;;17.10;1.00;;;;;;6250419;23;20163;-90
2023/09/08 06:43:56;;;;;;;8.47;5.80;;;17.30;1.00;;;;;;6225140;23;20164;-91
2023/09/08 06:46:21;;;;;;;14.23;5.33;;;17.50;1.00;;;;;;6251627;23;20616;-91
2023/09/08 06:48:47;;;;;;;11.83;5.80;;;17.60;1.00;;;;;;6249830;23;20182;-90
2023/09/08 06:51:12;;;;;;;10.07;6.23;;;17.60;1.00;;;;;;6224776;23;20183;-91
2023/09/08 06:53:38;;;;;;;10.17;5.77;;;18.30;1.00;;;;;;6250474;23;20547;-90
2023/09/08 06:56:11;;;;;;;9.97;5.70;;;18.20;1.00;;;;;;6251003;23;20183;-90
2023/09/08 06:58:38;;;;;;;7.53;5.63;;;18.20;1.00;;;;;;6255605;22;20142;-90
2023/09/08 07:01:04;;;;;;;9.50;5.73;;;18.30;1.00;;;;;;6266459;22;20214;-90
2023/09/08 07:03:36;;;;;;;9.33;5.60;;;18.60;1.00;;;;;;6253924;22;20511;-89
2023/09/08 07:06:02;;;;;;;8.47;5.57;;;19.30;1.00;;;;;;6253068;23;20655;-89
2023/09/08 07:08:28;;;;;;;9.67;6.43;;;18.90;1.00;;;;;;6252414;23;20159;-90
2023/09/08 07:10:54;;;;;;;8.23;5.60;;;19.10;1.00;;;;;;6251923;23;20169;-89
2023/09/08 07:13:19;;;;;;;9.27;5.20;;;19.50;1.00;;;;;;6254237;22;20152;-90
2023/09/08 07:15:45;;;;;;;7.73;5.23;;;19.00;1.00;;;;;;6253169;23;20209;-89
2023/09/08 07:18:10;;;;;;;7.27;5.23;;;19.70;1.00;;;;;;6253072;23;20160;-90
2023/09/08 07:20:36;;;;;;;8.40;6.40;;;19.80;1.00;;;;;;6251982;23;20594;-90
2023/09/08 07:23:01;;;;;;;6.13;5.43;;;20.10;1.00;;;;;;6253070;23;20206;-88
2023/09/08 07:25:27;;;;;;;7.60;6.07;;;20.10;1.00;;;;;;6252122;23;20179;-89
2023/09/08 07:27:53;;;;;;;7.80;5.20;;;20.10;1.00;;;;;;6252498;23;20655;-89
2023/09/08 07:30:20;;;;;;;7.67;5.57;;;20.50;99.90;;;;;;6252934;23;20601;-91
2023/09/08 07:32:45;;;;;;;9.73;5.50;;;20.60;99.90;;;;;;6252950;23;20163;-89
2023/09/08 07:35:14;;;;;;;8.47;5.40;;;20.80;19.60;;;;;;6254385;23;20286;-89
2023/09/08 07:37:41;;;;;;;8.97;5.73;;;20.90;1.00;;;;;;6253805;22;20156;-90
2023/09/08 07:40:09;;;;;;;8.10;5.97;;;21.80;99.90;;;;;;6252421;23;20183;-88
2023/09/08 07:42:34;;;;;;;11.97;6.17;;;21.20;35.40;;;;;;6254204;23;20159;-89
2023/09/08 07:45:00;;;;;;;9.13;5.80;;;21.40;1.00;;;;;;6254240;23;20243;-86
2023/09/08 07:47:25;;;;;;;7.87;5.77;;;21.50;1.00;;;;;;6227107;23;20568;-89
2023/09/08 07:49:51;;;;;;;10.37;6.73;;;21.60;1.00;;;;;;6253296;23;20162;-88
2023/09/08 07:52:16;;;;;;;10.17;6.20;;;22.00;19.00;;;;;;6251958;23;20214;-91
2023/09/08 07:54:42;;;;;;;8.30;5.50;;;21.90;99.90;;;;;;6254389;22;20155;-87
2023/09/08 07:57:08;;;;;;;5.97;5.27;;;22.20;1.00;;;;;;6254793;23;20207;-90
2023/09/08 07:59:34;;;;;;;15.70;5.40;;;22.10;99.90;;;;;;6253918;23;20265;-89
2023/09/08 08:02:00;;;;;;;9.10;4.93;;;22.30;1.00;;;;;;6253733;23;20164;-90
2023/09/08 08:04:25;;;;;;;13.87;5.30;;;22.40;1.00;;;;;;6226851;23;20178;-88
2023/09/08 08:06:51;;;;;;;8.43;5.13;;;22.60;1.00;;;;;;6251890;23;20255;-89
2023/09/08 08:09:17;;;;;;;5.90;4.40;;;22.70;1.00;;;;;;6252653;23;20162;-89
2023/09/08 08:11:42;;;;;;;8.17;5.10;;;23.00;99.90;;;;;;6252525;23;20242;-88
2023/09/08 08:14:08;;;;;;;6.37;4.70;;;22.90;1.00;;;;;;6256895;23;20246;-89
2023/09/08 08:16:34;;;;;;;6.50;4.63;;;23.10;1.00;;;;;;6254251;23;20179;-88
2023/09/08 08:19:00;;;;;;;5.83;4.90;;;23.20;1.00;;;;;;6261606;23;20183;-90
2023/09/08 08:21:25;;;;;;;7.87;4.47;;;23.20;99.90;;;;;;6254940;23;20218;-89
2023/09/08 08:23:51;;;;;;;8.23;4.30;;;23.40;99.90;;;;;;6252534;23;20167;-90
2023/09/08 08:26:18;;;;;;;5.30;4.00;;;23.60;99.90;;;;;;6253128;23;20175;-86
2023/09/08 08:28:43;;;;;;;5.73;4.60;;;23.70;1.00;;;;;;6255198;23;20234;-87
2023/09/08 08:31:11;;;;;;;7.97;4.47;;;23.80;1.00;;;;;;6257871;23;20159;-88
2023/09/08 08:33:36;;;;;;;5.83;4.40;;;24.00;1.00;;;;;;6255645;23;20155;-88
2023/09/08 08:36:02;;;;;;;5.57;4.20;;;24.10;1.00;;;;;;6257004;23;20658;-91
2023/09/08 08:38:28;;;;;;;6.80;4.27;;;24.20;1.00;;;;;;6255131;23;20166;-90
2023/09/08 08:40:54;;;;;;;8.03;4.13;;;23.20;99.90;;;;;;6253776;23;20238;-87
2023/09/08 08:43:22;;;;;;;5.93;4.33;;;24.30;99.90;;;;;;6253821;23;20151;-90
2023/09/08 08:45:50;;;;;;;6.47;4.33;;;24.50;99.90;;;;;;6256761;23;20179;-89
2023/09/08 08:48:18;;;;;;;5.30;4.73;;;24.60;99.90;;;;;;6257516;23;20171;-89
2023/09/08 08:50:44;;;;;;;10.13;5.07;;;24.70;99.90;;;;;;6255233;23;20167;-90
2023/09/08 08:53:10;;;;;;;12.63;4.67;;;24.80;99.90;;;;;;6254677;22;20160;-92
2023/09/08 08:55:36;;;;;;;9.67;4.30;;;24.90;99.90;;;;;;6253298;23;20191;-90
2023/09/08 08:58:05;;;;;;;6.07;4.60;;;24.90;92.20;;;;;;6255746;23;20159;-90
2023/09/08 09:00:33;;;;;;;7.03;4.10;;;25.00;99.90;;;;;;6254115;22;20180;-91
2023/09/08 09:03:00;;;;;;;10.97;4.23;;;25.10;99.90;;;;;;6254557;23;20148;-88
2023/09/08 09:05:30;;;;;;;8.80;4.10;;;25.20;90.60;;;;;;6254213;23;20233;-90
2023/09/08 09:07:58;;;;;;;8.33;4.00;;;25.30;99.50;;;;;;6253012;23;20160;-90
2023/09/08 09:10:23;;;;;;;8.07;4.70;;;25.30;99.90;;;;;;6259445;23;20159;-89
2023/09/08 09:12:49;;;;;;;5.43;4.17;;;25.60;72.60;;;;;;6231372;23;20167;-90
2023/09/08 09:15:16;;;;;;;5.50;4.27;;;25.70;48.60;;;;;;6254536;23;20615;-90
2023/09/08 09:17:41;;;;;;;5.20;3.90;;;26.00;31.70;;;;;;6253857;22;20155;-89
2023/09/08 09:20:20;;;;;;;6.80;4.27;;;26.00;20.30;;;;;;6256445;23;20237;-91
2023/09/08 09:22:49;;;;;;;5.07;3.83;;;26.10;12.80;;;;;;6257372;22;20132;-91
2023/09/08 09:25:25;;;;;;;4.23;3.83;;;26.30;1.20;;;;;;6258813;22;20199;-90
2023/09/08 09:27:52;;;;;;;6.00;4.20;;;26.40;1.00;;;;;;6252821;23;20686;-87
2023/09/08 09:30:18;;;;;;;7.37;4.40;;;26.50;1.00;;;;;;6251179;23;20171;-88
2023/09/08 09:32:44;;;;;;;6.27;4.23;;;26.60;1.00;;;;;;6252328;22;20485;-88
2023/09/08 09:35:10;;;;;;;5.73;3.93;;;26.60;1.00;;;;;;6250252;23;20156;-86
2023/09/08 09:37:35;;;;;;;12.33;4.23;;;26.70;1.00;;;;;;6250245;23;20162;-88
2023/09/08 09:40:04;;;;;;;6.13;4.23;;;26.70;1.00;;;;;;6252146;22;20186;-87
2023/09/08 09:42:31;;;;;;;10.53;4.40;;;26.80;1.00;;;;;;6251474;22;20223;-87
2023/09/08 09:44:57;;;;;;;9.13;4.80;;;26.90;1.00;;;;;;6249715;23;20209;-90
2023/09/08 09:47:22;;;;;;;10.77;4.50;;;27.10;1.00;;;;;;6249991;23;20218;-91
2023/09/08 09:49:49;;;;;;;6.93;4.20;;;27.10;1.00;;;;;;6250497;23;20597;-88
2023/09/08 09:52:22;;;;;;;14.67;4.53;;;27.30;1.00;;;;;;6249974;23;20159;-88
2023/09/08 09:54:50;;;;;;;5.70;4.37;;;27.40;1.00;;;;;;6250920;22;20211;-90
2023/09/08 09:57:18;;;;;;;6.70;4.10;;;27.50;1.00;;;;;;6251249;22;20178;-86
2023/09/08 09:59:43;;;;;;;10.67;4.07;;;27.60;1.00;;;;;;6251790;22;20175;-87
2023/09/08 10:02:13;;;;;;;5.33;4.20;;;27.80;1.00;;;;;;6249506;23;20179;-89
2023/09/08 10:04:40;;;;;;;7.80;4.30;;;27.90;1.00;;;;;;6249465;23;20632;-90
2023/09/08 10:07:07;;;;;;;5.47;3.73;;;27.80;1.00;;;;;;6249442;23;20186;-87
2023/09/08 10:09:32;;;;;;;4.60;4.00;;;27.90;1.00;;;;;;6249572;23;20205;-88
2023/09/08 10:12:03;;;;;;;5.60;4.03;;;28.00;1.00;;;;;;6248813;23;20166;-85
2023/09/08 10:14:31;;;;;;;4.43;3.85;;;27.90;1.00;;;;;;6250138;23;20246;-87
2023/09/08 10:17:01;;;;;;;6.43;4.40;;;28.00;1.00;;;;;;6254193;23;20524;-86
2023/09/08 10:19:27;;;;;;;7.90;3.83;;;28.00;1.00;;;;;;6249927;23;20194;-86
2023/09/08 10:21:59;;;;;;;5.67;3.97;;;28.00;1.00;;;;;;6251386;22;20155;-84
2023/09/08 10:24:37;;;;;;;6.97;4.07;;;28.10;1.00;;;;;;6250449;23;20147;-88
2023/09/08 10:27:12;;;;;;;9.23;4.43;;;28.20;1.00;;;;;;6249702;23;20171;-89
2023/09/08 10:29:39;;;;;;;9.15;4.82;;;28.30;1.00;;;;;;6251078;23;20250;-86
2023/09/08 10:32:07;;;;;;;8.35;4.97;;;28.40;1.00;;;;;;6224817;23;20171;-89
2023/09/08 10:34:34;;;;;;;9.23;5.43;;;28.40;1.00;;;;;;6251533;23;20191;-88
2023/09/08 10:37:00;;;;;;;7.07;5.00;;;28.40;1.00;;;;;;6252191;23;20267;-88
2023/09/08 10:39:30;;;;;;;6.97;4.95;;;28.40;1.00;;;;;;6252321;23;20183;-89
2023/09/08 10:42:25;;;;;;;6.13;4.82;;;28.30;1.00;;;;;;6251762;23;20160;-89
2023/09/08 10:45:04;;;;;;;8.43;4.57;;;28.30;1.00;;;;;;6251958;23;20237;-90
2023/09/08 10:47:41;;;;;;;9.38;4.70;;;28.40;1.00;;;;;;6251042;23;20246;-89
2023/09/08 10:50:08;;;;;;;9.05;5.40;;;28.50;1.00;;;;;;6252856;22;20143;-87
2023/09/08 10:52:35;;;;;;;10.20;4.57;;;28.60;1.00;;;;;;6253569;22;20564;-87
2023/09/08 10:55:01;;;;;;;8.30;4.53;;;28.50;1.00;;;;;;6251268;23;20168;-90
2023/09/08 10:57:27;;;;;;;4.95;4.15;;;28.50;1.00;;;;;;6250108;23;20235;-89
2023/09/08 11:00:04;;;;;;;8.18;4.55;;;28.50;1.00;;;;;;6251125;23;20580;-88
2023/09/08 11:02:50;;;;;;;6.82;4.40;;;28.50;1.00;;;;;;6251264;23;20162;-87
2023/09/08 11:05:19;;;;;;;6.47;4.18;;;28.50;1.00;;;;;;6252366;23;20183;-88
2023/09/08 11:07:46;;;;;;;9.10;4.55;;;28.50;1.00;;;;;;6251535;23;20152;-88
2023/09/08 11:10:12;;;;;;;8.95;3.80;;;28.50;1.00;;;;;;6252416;23;20163;-88
2023/09/08 11:12:38;;;;;;;7.40;3.53;;;28.50;1.00;;;;;;6252112;23;20171;-91
2023/09/08 11:15:07;;;;;;;6.90;4.55;;;28.60;1.00;;;;;;6250141;23;20503;-91
2023/09/08 11:17:35;;;;;;;5.47;3.58;;;28.70;1.00;;;;;;6250986;23;20223;-87
2023/09/08 11:20:08;;;;;;;7.13;4.05;;;28.80;1.00;;;;;;6249599;23;20187;-89
2023/09/08 11:22:34;;;;;;;8.05;3.92;;;29.00;1.00;;;;;;6226947;23;20227;-87
2023/09/08 11:25:04;;;;;;;8.45;4.47;;;29.10;1.00;;;;;;6250332;23;20182;-88
2023/09/08 11:27:31;;;;;;;7.90;4.18;;;29.20;1.00;;;;;;6251767;23;20182;-88
2023/09/08 11:29:57;;;;;;;7.65;3.70;;;29.30;1.00;;;;;;6252382;22;20152;-90
2023/09/08 11:32:23;;;;;;;12.38;4.63;;;29.40;1.00;;;;;;6250824;23;20198;-88
2023/09/08 11:34:49;;;;;;;11.50;4.07;;;29.40;1.00;;;;;;6252739;22;20155;-88
2023/09/08 11:37:18;;;;;;;11.40;4.35;;;29.50;1.00;;;;;;6250604;23;20186;-90
2023/09/08 11:39:45;;;;;;;12.93;4.03;;;29.50;1.00;;;;;;6251566;23;20187;-90
2023/09/08 11:42:15;;;;;;;7.75;3.63;;;29.50;1.00;;;;;;6250709;23;20178;-90
2023/09/08 11:44:41;;;;;;;5.03;3.13;;;29.60;1.00;;;;;;6251475;23;20235;-90
2023/09/08 11:47:09;;;;;;;6.30;3.88;;;29.80;1.00;;;;;;6251911;23;20188;-90
2023/09/08 11:49:47;;;;;;;8.13;3.80;;;30.00;1.00;;;;;;6252230;23;20609;-90
2023/09/08 11:52:13;;;;;;;9.68;4.32;;;30.10;1.00;;;;;;6231418;23;20155;-90
2023/09/08 11:54:39;;;;;;;9.32;3.90;;;30.10;1.00;;;;;;6255946;23;20159;-88
2023/09/08 11:57:11;;;;;;;8.43;4.18;;;30.30;1.00;;;;;;6257180;22;20179;-89
2023/09/08 11:59:38;;;;;;;6.32;3.70;;;30.30;1.00;;;;;;6258569;23;20186;-89
2023/09/08 12:02:05;;;;;;;9.10;3.80;;;30.50;1.00;;;;;;6256686;23;20167;-91
2023/09/08 12:04:35;;;;;;;8.75;3.67;;;30.50;1.00;;;;;;6255575;23;20179;-90
2023/09/08 12:07:01;;;;;;;7.63;3.80;;;30.40;1.00;;;;;;6255462;23;20285;-89
2023/09/08 12:09:28;;;;;;;6.85;4.32;;;30.40;1.00;;;;;;6249815;23;20231;-89
2023/09/08 12:11:53;;;;;;;8.18;4.20;;;30.30;1.00;;;;;;6250008;23;20166;-91
2023/09/08 12:14:19;;;;;;;10.13;4.40;;;30.30;1.00;;;;;;6253376;23;20156;-91
2023/09/08 12:16:44;;;;;;;7.55;3.78;;;30.30;1.00;;;;;;6259112;23;20229;-91
2023/09/08 12:19:30;;;;;;;9.00;4.10;;;30.40;1.00;;;;;;6250100;23;20218;-88
2023/09/08 12:21:59;;;;;;;6.50;3.70;;;30.50;1.00;;;;;;6249818;23;20156;-91
2023/09/08 12:25:01;;;;;;;4.68;3.55;;;30.70;1.00;;;;;;6250229;23;20160;-91
2023/09/08 12:27:27;;;;;;;5.80;3.58;;;30.60;1.00;;;;;;6250944;23;20150;-90
2023/09/08 12:29:57;;;;;;;7.03;3.65;;;30.80;1.00;;;;;;6250136;23;20188;-90
2023/09/08 12:32:25;;;;;;;8.45;4.13;;;30.90;1.00;;;;;;6250228;23;20159;-89
2023/09/08 12:34:51;;;;;;;11.55;3.67;;;31.10;1.00;;;;;;6250079;23;20160;-88
2023/09/08 12:37:24;;;;;;;7.55;3.63;;;31.20;1.00;;;;;;6250383;23;20189;-88
2023/09/08 12:39:50;;;;;;;6.63;3.38;;;31.40;1.00;;;;;;6251301;23;20238;-87
2023/09/08 12:42:17;;;;;;;8.00;3.75;;;31.60;1.00;;;;;;6249648;23;20162;-86
2023/09/08 12:44:44;;;;;;;10.57;3.65;;;31.80;1.00;;;;;;6250910;23;20156;-87
2023/09/08 12:47:13;;;;;;;7.10;3.85;;;31.90;1.00;;;;;;6249666;23;20191;-89
2023/09/08 12:49:40;;;;;;;6.07;3.88;;;32.10;1.00;;;;;;6251483;23;20144;-92
2023/09/08 12:52:06;;;;;;;6.13;3.72;;;32.20;1.00;;;;;;6250244;23;20627;-88
2023/09/08 12:54:33;;;;;;;7.85;3.40;;;32.30;1.00;;;;;;6252213;23;20195;-91
2023/09/08 12:56:59;;;;;;;13.02;4.15;;;32.30;1.00;;;;;;6250318;23;20183;-91
2023/09/08 12:59:24;;;;;;;12.35;3.53;;;32.30;1.00;;;;;;6250921;23;20237;-89
2023/09/08 13:01:50;;;;;;;11.63;4.07;;;32.40;1.00;;;;;;6250299;23;20162;-89
2023/09/08 13:04:15;;;;;;;9.43;4.20;;;32.60;1.00;;;;;;6250712;23;20159;-89
2023/09/08 13:06:41;;;;;;;10.73;3.95;;;32.60;1.00;;;;;;6250164;23;20186;-90
2023/09/08 13:09:08;;;;;;;8.57;3.85;;;32.60;1.00;;;;;;6250514;23;20217;-90
2023/09/08 13:11:34;;;;;;;6.35;3.90;;;32.60;1.00;;;;;;6253472;22;20493;-89
2023/09/08 13:14:01;;;;;;;10.23;4.15;;;32.50;1.00;;;;;;6254241;22;20183;-87
2023/09/08 13:16:27;;;;;;;5.10;3.40;;;32.40;1.00;;;;;;6252335;23;20184;-87
2023/09/08 13:18:53;;;;;;;7.40;3.53;;;32.30;1.00;;;;;;6253015;23;20160;-87
2023/09/08 13:21:18;;;;;;;10.73;4.10;;;32.40;1.00;;;;;;6254016;23;20152;-86
2023/09/08 13:23:44;;;;;;;12.65;3.80;;;32.40;1.00;;;;;;6250904;23;20191;-89
2023/09/08 13:26:09;;;;;;;6.18;3.97;;;32.30;1.00;;;;;;6251632;23;20180;-90
2023/09/08 13:28:35;;;;;;;9.57;3.60;;;32.30;1.00;;;;;;6252514;23;20160;-89
2023/09/08 13:31:00;;;;;;;9.40;3.85;;;32.50;1.00;;;;;;6252854;23;20159;-91
2023/09/08 13:33:26;;;;;;;10.10;4.07;;;32.60;1.00;;;;;;6252347;23;20159;-90
2023/09/08 13:35:52;;;;;;;12.27;3.35;;;32.60;1.00;;;;;;6252759;23;20187;-86
2023/09/08 13:38:18;;;;;;;6.28;3.60;;;32.60;1.00;;;;;;6252558;23;20659;-86
2023/09/08 13:40:43;;;;;;;10.40;4.13;;;32.60;1.00;;;;;;6253948;23;20186;-90
2023/09/08 13:43:11;;;;;;;5.50;3.60;;;32.50;1.00;;;;;;6254001;22;20183;-88
2023/09/08 13:45:36;;;;;;;7.93;3.30;;;32.40;1.00;;;;;;6253165;23;20199;-87
2023/09/08 13:48:04;;;;;;;7.88;3.72;;;32.40;1.00;;;;;;6253759;23;20178;-89
2023/09/08 13:50:29;;;;;;;12.20;3.88;;;32.50;1.00;;;;;;6254117;23;20509;-87
2023/09/08 13:52:55;;;;;;;8.57;4.00;;;32.70;1.00;;;;;;6252447;23;20163;-90
2023/09/08 13:55:23;;;;;;;6.72;3.80;;;32.90;1.00;;;;;;6252753;23;20190;-91
2023/09/08 13:57:49;;;;;;;12.23;4.10;;;33.10;1.00;;;;;;6253553;23;20155;-91
2023/09/08 14:00:17;;;;;;;6.05;3.35;;;33.30;1.00;;;;;;6254698;23;20500;-92
2023/09/08 14:02:44;;;;;;;7.43;3.70;;;33.40;1.00;;;;;;6254611;23;20155;-91
2023/09/08 14:05:10;;;;;;;4.72;3.35;;;33.30;1.00;;;;;;6254290;23;20313;-89
2023/09/08 14:07:35;;;;;;;8.23;3.60;;;33.30;1.00;;;;;;6253963;23;20156;-88
2023/09/08 14:10:01;;;;;;;6.05;3.65;;;33.20;1.00;;;;;;6262638;22;20155;-91
2023/09/08 14:12:27;;;;;;;3.58;3.20;;;33.30;1.00;;;;;;6260696;23;20464;-87
2023/09/08 14:14:53;;;;;;;10.18;4.38;;;33.40;1.00;;;;;;6262614;23;20156;-89
2023/09/08 14:17:18;;;;;;;8.43;3.28;;;33.60;1.00;;;;;;6250048;23;20624;-88
2023/09/08 14:19:44;;;;;;;4.85;3.58;;;33.70;1.00;;;;;;6251181;23;20187;-89
2023/09/08 14:22:09;;;;;;;6.80;3.67;;;33.70;1.00;;;;;;6224408;23;20170;-88
2023/09/08 14:24:35;;;;;;;5.90;3.55;;;33.70;1.00;;;;;;6249676;23;20155;-90
2023/09/08 14:27:01;;;;;;;4.75;3.35;;;33.70;1.00;;;;;;6249675;23;20183;-88
2023/09/08 14:29:26;;;;;;;9.70;3.40;;;33.50;1.00;;;;;;6250785;23;20612;-86
2023/09/08 14:31:52;;;;;;;5.63;3.88;;;33.60;1.00;;;;;;6251001;23;20184;-87
2023/09/08 14:34:17;;;;;;;6.88;3.70;;;33.60;1.00;;;;;;6249518;23;20170;-88
2023/09/08 14:36:44;;;;;;;8.32;3.42;;;33.70;1.00;;;;;;6249513;23;20175;-86
2023/09/08 14:39:09;;;;;;;8.38;3.15;;;33.80;1.00;;;;;;6224490;23;20192;-85